Terminal Aerodrome Forecast
Issued by NWS

Home | Current Version | Previous Version | Text Only | Print | Product List | Glossary On
Versions: 1 2 3 4 5 6 7 8 9 10 11 12 13 14 15 16 17 18 19
000
FTUS41 KGYX 251120
TAFHIE
TAF
KHIE 251120Z 2512/2612 VRB03KT P6SM BKN200
     FM251600 24006KT P6SM BKN060
     FM252100 VRB03KT P6SM -SHRA OVC035
     FM260000 VRB03KT 5SM -SHRA BR OVC025=

USA.gov is the U.S. government's official web portal to all federal, state and local government web resources and services.